Saint Albans Bay — V7BQ8 — position and weather

sailwx.info

Track history (hours):
 
Tides and Currents Weather Stations Pressure Air Temp Water Temp Dewpoint Dewpoint Depression Visibility Wind Speed Wind Dir Waves Ship Positions

Saint Albans Bay

Last reported at 2017-Dec-11 12:53 UTC. Time now 2017-Dec-11 21:00 UTC.
Position N 52°24' E 004°46'.

Length 183 m; draft 8.5 m.

Type: Tanker. MMSI: 538005189.

Date/timePositionNaut miles runAvg speedWind from/ knotsBaromVisibWave heightAir tempDewpointWater temp
2017-Dec-11 12:53N 52°24' E 004°46'0 0.0
2017-Dec-11 11:41N 52°24' E 004°46'0 0.0
2017-Dec-11 11:14N 52°24' E 004°46'0 0.0
2017-Dec-11 10:47N 52°24' E 004°46'0 0.0
2017-Dec-11 10:23N 52°24' E 004°46'0 0.0
2017-Dec-11 09:35N 52°24' E 004°46'0 0.0
2017-Dec-11 09:17N 52°24' E 004°46'0 0.0
2017-Dec-11 08:59N 52°24' E 004°46'0 0.0
2017-Dec-11 08:29N 52°24' E 004°46'0 0.0
2017-Dec-11 06:59N 52°24' E 004°46'0 0.0
2017-Dec-11 06:14N 52°24' E 004°46'0 0.0
2017-Dec-11 05:59N 52°24' E 004°46'0 0.0
2017-Dec-11 05:23N 52°24' E 004°46'0 0.0
2017-Dec-11 04:38N 52°24' E 004°46'0 0.0
2017-Dec-11 04:29N 52°24' E 004°46'0 0.0
2017-Dec-11 03:59N 52°24' E 004°46'0 0.0
2017-Dec-11 03:26N 52°24' E 004°46'0 0.0
2017-Dec-11 02:50N 52°24' E 004°46'0 0.0
2017-Dec-11 02:29N 52°24' E 004°46'0 0.8
2017-Dec-11 02:00N 52°24' E 004°47'6 6.1
2017-Dec-11 01:00N 52°28' E 004°38'1 2.3
2017-Dec-11 00:30N 52°28' E 004°36'1 1.7
2017-Dec-11 00:01N 52°28' E 004°35'1 2.8
2017-Dec-10 23:30N 52°28' E 004°33'4 8.8
2017-Dec-10 23:00N 52°28' E 004°26'1 2.7
2017-Dec-10 22:30N 52°28' E 004°24'2 4.0
2017-Dec-10 22:00N 52°28' E 004°20'3 7.0
2017-Dec-10 21:30N 52°29' E 004°15'5 9.5
2017-Dec-10 21:00N 52°29' E 004°07'5 9.7
2017-Dec-10 20:30N 52°26' E 003°60'1 1.6
2017-Dec-10 19:59N 52°25' E 004°00'0 0.1
2017-Dec-10 19:29N 52°25' E 003°60'0 0.1
2017-Dec-10 18:59N 52°25' E 003°60'0 0.1
2017-Dec-10 18:29N 52°25' E 003°60'0 0.0
2017-Dec-10 17:59N 52°25' E 003°60'0 0.2
2017-Dec-10 17:29N 52°26' E 003°60'0 0.1
2017-Dec-10 16:59N 52°25' E 003°60'0 0.0
2017-Dec-10 16:29N 52°25' E 003°60'0 0.1
2017-Dec-10 15:59N 52°26' E 003°60'0 0.0
2017-Dec-10 15:26N 52°26' E 003°60'0 0.0
2017-Dec-10 14:59N 52°26' E 003°60'0 0.0
2017-Dec-10 14:29N 52°26' E 003°60'0 0.0
2017-Dec-10 13:59N 52°26' E 003°60'0 0.0
2017-Dec-10 13:29N 52°26' E 003°60'0 0.0
2017-Dec-10 12:59N 52°26' E 003°60'0 0.0
2017-Dec-10 12:29N 52°26' E 003°60'0 0.1
2017-Dec-10 11:59N 52°26' E 003°60'0 0.1
2017-Dec-10 11:29N 52°26' E 003°60'0 0.1
2017-Dec-10 10:59N 52°26' E 004°00'0 0.1
2017-Dec-10 10:29N 52°26' E 004°00'0 0.0
2017-Dec-10 09:59N 52°26' E 004°00'0 0.0
2017-Dec-10 09:29N 52°26' E 004°00'0 0.0
2017-Dec-10 08:59N 52°26' E 004°00'0 0.0
2017-Dec-10 08:29N 52°26' E 004°00'0 0.0
2017-Dec-10 07:59N 52°26' E 004°00'0 0.0
2017-Dec-10 07:26N 52°26' E 004°00'0 0.0
2017-Dec-10 06:59N 52°26' E 004°00'0 0.1
2017-Dec-10 06:29N 52°26' E 004°00'0 0.0
2017-Dec-10 05:59N 52°26' E 004°00'0 0.0
2017-Dec-10 05:29N 52°26' E 004°00'0 0.2
2017-Dec-10 04:59N 52°26' E 004°00'0 0.1
2017-Dec-10 04:29N 52°26' E 004°00'0 0.1
2017-Dec-10 03:56N 52°26' E 004°00'0 0.0
2017-Dec-10 03:29N 52°26' E 004°00'0 0.1
2017-Dec-10 02:59N 52°25' E 004°00'0 0.0
2017-Dec-10 02:29N 52°25' E 004°00'0 0.0
2017-Dec-10 01:59N 52°25' E 004°00'0 0.1
2017-Dec-10 01:29N 52°25' E 004°00'0 0.0
2017-Dec-10 00:59N 52°25' E 004°00'0 0.0
2017-Dec-10 00:29N 52°25' E 004°00'0 0.0
2017-Dec-09 23:59N 52°25' E 004°00'0 0.0
2017-Dec-09 23:29N 52°25' E 004°00'0 0.0
2017-Dec-09 22:59N 52°25' E 004°00'0 0.1
2017-Dec-09 22:29N 52°26' E 004°00'0 0.0
2017-Dec-09 21:59N 52°26' E 004°00'0 0.0
2017-Dec-09 21:29N 52°26' E 004°00'0 0.0
2017-Dec-09 20:59N 52°26' E 004°00'0 0.0
2017-Dec-09 20:29N 52°26' E 004°00'0 0.0
2017-Dec-09 19:59N 52°26' E 004°00'0 0.0
2017-Dec-09 19:29N 52°26' E 004°00'0 0.1
2017-Dec-09 19:00N 52°26' E 004°00'0 0.0
2017-Dec-09 18:29N 52°26' E 004°00'0 0.0
2017-Dec-09 17:58N 52°26' E 004°00'0 0.1
2017-Dec-09 17:29N 52°25' E 004°00'0 0.0
2017-Dec-09 16:59N 52°25' E 004°00'0 0.1
2017-Dec-09 16:29N 52°25' E 004°00'0 0.1
2017-Dec-09 15:59N 52°25' E 004°00'0 0.1
2017-Dec-09 15:29N 52°25' E 004°00'0 0.1
2017-Dec-09 14:59N 52°25' E 004°00'0 0.0
2017-Dec-09 14:29N 52°25' E 004°00'0 0.1
2017-Dec-09 13:59N 52°25' E 004°00'0 0.0
2017-Dec-09 13:29N 52°25' E 004°00'0 0.0
2017-Dec-09 12:59N 52°25' E 004°00'0 0.0
2017-Dec-09 12:29N 52°25' E 004°00'0 0.1
2017-Dec-09 11:59N 52°25' E 004°00'0 0.1
2017-Dec-09 11:29N 52°25' E 004°00'0 0.1
2017-Dec-09 10:59N 52°25' E 004°00'0 0.0
2017-Dec-09 10:29N 52°25' E 004°00'0 0.0
2017-Dec-09 09:59N 52°25' E 004°00'0 0.1
2017-Dec-09 09:29N 52°25' E 004°00'0 0.0
2017-Dec-09 09:00N 52°25' E 004°00'0 0.0
2017-Dec-09 08:28N 52°25' E 004°00'0 0.0
2017-Dec-09 08:00N 52°25' E 004°00'0 0.0
2017-Dec-09 07:29N 52°25' E 004°00'0 0.0
2017-Dec-09 07:00N 52°25' E 004°00'0 0.0
2017-Dec-09 06:30N 52°25' E 004°00'0 0.0
2017-Dec-09 06:00N 52°25' E 004°00'0 0.0
2017-Dec-09 05:30N 52°25' E 004°00'0 0.1
2017-Dec-09 04:58N 52°25' E 004°00'0 0.1
2017-Dec-09 04:29N 52°25' E 004°00'0 0.1
2017-Dec-09 03:59N 52°25' E 004°00'0 0.1
2017-Dec-09 03:28N 52°25' E 004°00'0 0.0
2017-Dec-09 02:58N 52°25' E 004°00'0 0.0
2017-Dec-09 02:28N 52°25' E 004°00'0 0.1
2017-Dec-09 01:58N 52°25' E 004°00'0 0.0
2017-Dec-09 01:28N 52°25' E 004°00'0 0.0
2017-Dec-09 00:55N 52°25' E 004°00'0 0.1
2017-Dec-09 00:25N 52°25' E 004°00'0 0.0
2017-Dec-08 23:58N 52°25' E 004°00'0 0.0
2017-Dec-08 23:28N 52°25' E 004°00'0 0.0
2017-Dec-08 22:55N 52°25' E 004°00'0 0.0
2017-Dec-08 22:28N 52°25' E 004°00'0 0.1
2017-Dec-08 21:59N 52°25' E 004°00'0 0.0
2017-Dec-08 21:26N 52°25' E 004°00'0 0.2
2017-Dec-08 20:56N 52°25' E 004°00'0 0.1
2017-Dec-08 20:26N 52°25' E 004°00'0 0.1
2017-Dec-08 19:59N 52°25' E 004°00'0 0.1
2017-Dec-08 19:30N 52°25' E 004°00'0 0.1
2017-Dec-08 18:54N 52°25' E 004°00'0 0.0
2017-Dec-08 18:30N 52°25' E 004°00'0 0.1
2017-Dec-08 17:50N 52°26' E 004°00'0 0.0
2017-Dec-08 17:24N 52°25' E 004°00'0 0.0
2017-Dec-08 16:53N 52°26' E 004°00'0 0.1
2017-Dec-08 16:25N 52°25' E 004°00'0 0.1
2017-Dec-08 15:56N 52°26' E 004°00'0 0.0
2017-Dec-08 15:30N 52°26' E 004°00'0 0.0
2017-Dec-08 15:00N 52°26' E 004°00'0 0.0
2017-Dec-08 14:30N 52°26' E 004°00'0 0.0
2017-Dec-08 13:57N 52°26' E 004°00'0 0.1
2017-Dec-08 13:27N 52°26' E 004°00'0 0.0
2017-Dec-08 12:57N 52°26' E 003°60'0 0.1
2017-Dec-08 12:30N 52°26' E 004°00'0 0.0
2017-Dec-08 12:00N 52°26' E 004°00'0 0.0
2017-Dec-08 11:30N 52°26' E 004°00'0 0.0
2017-Dec-08 11:00N 52°26' E 004°00'0 0.1
2017-Dec-08 10:30N 52°26' E 004°00'0 0.1
2017-Dec-08 10:00N 52°26' E 004°00'0 0.0
2017-Dec-08 09:30N 52°26' E 004°00'0 0.2
2017-Dec-08 09:00N 52°26' E 004°00'0 0.1
2017-Dec-08 08:30N 52°26' E 004°00'0 0.1
2017-Dec-08 08:00N 52°26' E 004°00'0 0.0
2017-Dec-08 07:30N 52°26' E 004°00'0 0.1
2017-Dec-08 06:57N 52°26' E 004°00'0 0.0
2017-Dec-08 06:27N 52°26' E 004°00'0 0.0
2017-Dec-08 06:00N 52°26' E 004°00'0 0.1
2017-Dec-08 05:22N 52°26' E 004°00'0 0.0
2017-Dec-08 04:58N 52°26' E 004°00'0 0.0
2017-Dec-08 04:28N 52°26' E 004°00'0 0.1
2017-Dec-08 03:59N 52°26' E 004°00'0 0.1
2017-Dec-08 03:30N 52°26' E 004°00'0 0.1
2017-Dec-08 02:54N 52°26' E 004°00'0 0.0
2017-Dec-08 02:30N 52°26' E 004°00'0 0.0
2017-Dec-08 02:00N 52°26' E 004°00'0 0.0
2017-Dec-08 01:30N 52°26' E 004°00'0 0.0
2017-Dec-08 01:00N 52°26' E 004°00'0 0.0
2017-Dec-08 00:30N 52°26' E 004°00'0 0.0
2017-Dec-08 00:00N 52°26' E 004°00'0 0.0
2017-Dec-07 23:30N 52°26' E 004°00'0 0.0
2017-Dec-07 23:00N 52°26' E 004°00'0 0.0
2017-Dec-07 22:30N 52°26' E 004°00'0 0.0
2017-Dec-07 22:00N 52°26' E 004°00'0 0.0
2017-Dec-07 21:30N 52°26' E 004°00'0 0.0
2017-Dec-07 21:00N 52°26' E 004°00'0 0.2
2017-Dec-07 20:30N 52°26' E 004°00'0 0.0
2017-Dec-07 20:00N 52°26' E 004°00'0 0.0
2017-Dec-07 19:30N 52°26' E 004°00'0 0.1
2017-Dec-07 19:00N 52°26' E 004°00'0 0.0
2017-Dec-07 18:30N 52°26' E 004°00'0 0.0
2017-Dec-07 18:00N 52°26' E 004°00'0 0.0
2017-Dec-07 17:30N 52°26' E 004°00'0 0.1
2017-Dec-07 16:54N 52°26' E 004°00'0 0.1
2017-Dec-07 16:30N 52°26' E 004°00'0 0.0
2017-Dec-07 15:54N 52°26' E 004°00'0 0.1
2017-Dec-07 15:27N 52°26' E 004°00'0 0.2
2017-Dec-07 15:00N 52°26' E 004°00'0 0.1
2017-Dec-07 14:30N 52°26' E 004°00'0 0.1
2017-Dec-07 14:00N 52°26' E 003°60'0 0.1
2017-Dec-07 13:28N 52°26' E 003°60'0 0.1
2017-Dec-07 13:00N 52°26' E 003°60'0 0.0
2017-Dec-07 12:30N 52°26' E 004°00'0 0.0
2017-Dec-07 11:58N 52°26' E 004°00'0 0.0
2017-Dec-07 11:26N 52°26' E 004°00'0 0.2
2017-Dec-07 11:00N 52°26' E 003°60'0 0.2
2017-Dec-07 10:30N 52°26' E 004°00'0 0.1
2017-Dec-07 10:00N 52°26' E 003°60'0 0.0
2017-Dec-07 09:30N 52°26' E 003°60'0 0.1
2017-Dec-07 09:00N 52°26' E 003°60'0 0.1
2017-Dec-07 08:30N 52°26' E 003°60'0 0.1
2017-Dec-07 08:00N 52°26' E 003°60'0 0.1
2017-Dec-07 07:30N 52°26' E 003°60'0 0.0
2017-Dec-07 07:00N 52°26' E 003°60'0 0.0
2017-Dec-07 06:30N 52°26' E 003°60'0 0.1
2017-Dec-07 06:00N 52°26' E 003°60'0 0.1
2017-Dec-07 05:30N 52°26' E 003°60'0 0.1
2017-Dec-07 05:00N 52°26' E 003°60'0 0.1
2017-Dec-07 04:30N 52°26' E 003°60'0 0.1
2017-Dec-07 04:00N 52°26' E 003°60'0 0.6
2017-Dec-07 03:30N 52°26' E 003°60'2 3.8
2017-Dec-07 03:00N 52°27' E 003°58'510.5
2017-Dec-07 02:30N 52°23' E 003°52'612.1
2017-Dec-07 02:00N 52°17' E 003°52'611.9
2017-Dec-07 01:30N 52°11' E 003°54'611.5
2017-Dec-07 01:00N 52°06' E 003°54'4 7.2
2017-Dec-07 00:30N 52°02' E 003°55'510.4
2017-Dec-07 00:00N 51°59' E 004°03'510.0
2017-Dec-06 23:30N 51°57' E 004°10'1 2.2
2017-Dec-06 22:58N 51°56' E 004°11'0 0.0
2017-Dec-06 22:28N 51°56' E 004°11'0 0.0
2017-Dec-06 21:55N 51°56' E 004°11'0 0.0
2017-Dec-06 21:25N 51°56' E 004°11'0 0.0
2017-Dec-06 20:58N 51°56' E 004°11'  
2017-Dec-04 10:19N 51°54' E 004°22'0 0.0
2017-Dec-04 09:58N 51°54' E 004°22'0 0.0
2017-Dec-04 09:28N 51°54' E 004°22'0 0.0
2017-Dec-04 08:58N 51°54' E 004°22'0 0.0
2017-Dec-04 08:22N 51°54' E 004°22'0 0.0
2017-Dec-04 07:58N 51°54' E 004°22'0 0.0
2017-Dec-04 07:28N 51°54' E 004°22'0 0.0
2017-Dec-04 06:58N 51°54' E 004°22'0 0.0
2017-Dec-04 06:28N 51°54' E 004°22'0 0.0
2017-Dec-04 05:58N 51°54' E 004°22'0 0.0
2017-Dec-04 05:28N 51°54' E 004°22'0 0.0
2017-Dec-04 04:58N 51°54' E 004°22'0 0.0
2017-Dec-04 04:28N 51°54' E 004°22'0 0.0
2017-Dec-04 03:58N 51°54' E 004°22'0 0.0
2017-Dec-04 03:28N 51°54' E 004°22'0 0.0
2017-Dec-04 02:55N 51°54' E 004°22'0 0.0
2017-Dec-04 02:28N 51°54' E 004°22'0 0.0
2017-Dec-04 01:58N 51°54' E 004°22'0 0.0
2017-Dec-04 01:28N 51°54' E 004°22'0 0.0
2017-Dec-04 00:58N 51°54' E 004°22'0 0.0
2017-Dec-04 00:28N 51°54' E 004°22'0 0.0
2017-Dec-03 23:58N 51°54' E 004°22'0 0.0
2017-Dec-03 23:28N 51°54' E 004°22'0 0.0
2017-Dec-03 22:58N 51°54' E 004°22'0 0.0
2017-Dec-03 22:28N 51°54' E 004°22'0 0.0
2017-Dec-03 21:52N 51°54' E 004°22'0 0.0
2017-Dec-03 21:22N 51°54' E 004°22'0 0.0
2017-Dec-03 20:58N 51°54' E 004°22'0 0.0
2017-Dec-03 20:28N 51°54' E 004°22'0 0.0
2017-Dec-03 19:58N 51°54' E 004°22'0 0.0
2017-Dec-03 19:28N 51°54' E 004°22'0 0.0
2017-Dec-03 18:55N 51°54' E 004°22'0 0.0
2017-Dec-03 18:28N 51°54' E 004°22'0 0.0
2017-Dec-03 17:58N 51°54' E 004°22'0 0.0
2017-Dec-03 17:28N 51°54' E 004°22'0 0.0
2017-Dec-03 16:55N 51°54' E 004°22'0 0.0
2017-Dec-03 16:28N 51°54' E 004°22'0 0.0
2017-Dec-03 15:58N 51°54' E 004°22'0 0.0
2017-Dec-03 15:28N 51°54' E 004°22'0 0.0
2017-Dec-03 14:58N 51°54' E 004°22'0 0.0
2017-Dec-03 14:25N 51°54' E 004°22'0 0.0
2017-Dec-03 13:58N 51°54' E 004°22'0 0.0
2017-Dec-03 13:28N 51°54' E 004°22'0 0.0
2017-Dec-03 12:58N 51°54' E 004°22'0 0.0
2017-Dec-03 12:28N 51°54' E 004°22'0 0.0
2017-Dec-03 11:58N 51°54' E 004°22'0 0.0
2017-Dec-03 11:28N 51°54' E 004°22'0 0.0
2017-Dec-03 10:58N 51°54' E 004°22'0 0.0
2017-Dec-03 10:28N 51°54' E 004°22'0 0.0
2017-Dec-03 09:58N 51°54' E 004°22'0 0.0
2017-Dec-03 09:28N 51°54' E 004°22'0 0.0
2017-Dec-03 08:58N 51°54' E 004°22'0 0.0
2017-Dec-03 08:25N 51°54' E 004°22'0 0.0
2017-Dec-03 07:58N 51°54' E 004°22'0 0.0
2017-Dec-03 07:28N 51°54' E 004°22'0 0.0
2017-Dec-03 06:58N 51°54' E 004°22'0 0.0
2017-Dec-03 06:28N 51°54' E 004°22'0 0.0
2017-Dec-03 05:55N 51°54' E 004°22'0 0.0
2017-Dec-03 05:28N 51°54' E 004°22'0 0.0
2017-Dec-03 04:58N 51°54' E 004°22'0 0.0
2017-Dec-03 04:28N 51°54' E 004°22'0 0.0
2017-Dec-03 03:58N 51°54' E 004°22'0 0.0
2017-Dec-03 03:28N 51°54' E 004°22'0 0.0
2017-Dec-03 02:58N 51°54' E 004°22'0 0.4
2017-Dec-03 02:31N 51°54' E 004°21'2 4.6
2017-Dec-03 02:00N 51°54' E 004°18'5 9.9
2017-Dec-03 01:30N 51°57' E 004°11'611.4
2017-Dec-03 01:00N 51°59' E 004°03'612.4
2017-Dec-03 00:30N 52°00' E 003°53'4 7.8
2017-Dec-03 00:00N 51°59' E 003°47'4 8.4
2017-Dec-02 23:30N 51°58' E 003°40'712.2
2017-Dec-02 22:57N 51°56' E 003°30'613.8
2017-Dec-02 22:30N 51°54' E 003°20'4911.8
2017-Dec-02 18:21N 51°28' E 002°14'411.5
2017-Dec-02 18:01N 51°25' E 002°11'611.8
2017-Dec-02 17:30N 51°19' E 002°08'611.9
2017-Dec-02 17:00N 51°14' E 002°04'611.8
2017-Dec-02 16:31N 51°11' E 001°56'611.9
2017-Dec-02 16:01N 51°08' E 001°47'612.3
2017-Dec-02 15:31N 51°04' E 001°40'612.7
2017-Dec-02 15:01N 50°60' E 001°33'712.9
2017-Dec-02 14:30N 50°55' E 001°26'713.8
2017-Dec-02 14:01N 50°48' E 001°23'713.1
2017-Dec-02 13:27N 50°41' E 001°18'2513.0
2017-Dec-02 11:34N 50°28' E 000°46'112.8
2017-Dec-02 11:30N 50°28' E 000°44'1712.8
2017-Dec-02 10:10N 50°23' E 000°19'213.0
2017-Dec-02 10:00N 50°22' E 000°16'813.3
2017-Dec-02 09:26N 50°20' E 000°04'612.4
2017-Dec-02 08:58N 50°16' W 000°02'613.6
2017-Dec-02 08:30N 50°10' W 000°03'713.8
2017-Dec-02 08:00N 50°03' W 000°06'713.6
2017-Dec-02 07:30N 49°56' W 000°07'713.5
2017-Dec-02 07:00N 49°50' W 000°09'612.8
2017-Dec-02 06:30N 49°43' W 000°09'612.7
2017-Dec-02 06:00N 49°37' W 000°07'612.2
2017-Dec-02 05:30N 49°31' W 000°04'510.8
2017-Dec-02 05:00N 49°29' E 000°04'4 7.4
2017-Dec-02 04:30N 49°28' E 000°10'1 1.0
2017-Dec-02 03:58N 49°29' E 000°10'0 0.5
2017-Dec-02 03:30N 49°29' E 000°11'1 1.8
2017-Dec-02 02:58N 49°29' E 000°12'0 0.0
2017-Dec-02 02:28N 49°29' E 000°12'0 0.0
2017-Dec-02 01:55N 49°29' E 000°12'0 0.0
2017-Dec-02 01:28N 49°29' E 000°12'0 0.0
2017-Dec-02 00:58N 49°29' E 000°12'0 0.0
2017-Dec-02 00:28N 49°29' E 000°12'0 0.0
2017-Dec-01 23:58N 49°29' E 000°12'0 0.0
2017-Dec-01 23:28N 49°29' E 000°12'0 0.0
2017-Dec-01 22:55N 49°29' E 000°12'0 0.0
2017-Dec-01 22:28N 49°29' E 000°12'0 0.0
2017-Dec-01 21:58N 49°29' E 000°12'0 0.0
2017-Dec-01 21:25N 49°29' E 000°12'0 0.0
2017-Dec-01 20:58N 49°29' E 000°12'0 0.0
2017-Dec-01 20:28N 49°29' E 000°12'0 0.0
2017-Dec-01 19:58N 49°29' E 000°12'0 0.0
2017-Dec-01 19:28N 49°29' E 000°12'0 0.0
2017-Dec-01 18:58N 49°29' E 000°12'0 0.0
2017-Dec-01 18:28N 49°29' E 000°12'0 0.0
2017-Dec-01 17:58N 49°29' E 000°12'0 0.0
2017-Dec-01 17:28N 49°29' E 000°12'0 0.0
2017-Dec-01 16:58N 49°29' E 000°12'0 0.0
2017-Dec-01 16:28N 49°29' E 000°12'0 0.0
2017-Dec-01 15:58N 49°29' E 000°12'0 0.0
2017-Dec-01 15:28N 49°29' E 000°12'0 0.0
2017-Dec-01 14:58N 49°29' E 000°12'0 0.0
2017-Dec-01 14:28N 49°29' E 000°12'0 0.0
2017-Dec-01 13:58N 49°29' E 000°12'0 0.0
2017-Dec-01 13:28N 49°29' E 000°12'0 0.0
2017-Dec-01 12:58N 49°29' E 000°12'  
Track history (hours):
 
Tides and Currents Weather Stations Pressure Air Temp Water Temp Dewpoint Dewpoint Depression Visibility Wind Speed Wind Dir Waves Ship Positions

Saint Albans Bay

Last reported at 2017-Dec-11 12:53 UTC. Time now 2017-Dec-11 21:00 UTC.
Position N 52°24' E 004°46'.

Length 183 m; draft 8.5 m.

Type: Tanker. MMSI: 538005189.

Date/timePositionNaut miles runAvg speedWind from/ knotsBaromVisibWave heightAir tempDewpointWater temp
2017-Dec-11 12:53N 52°24' E 004°46'0 0.0
2017-Dec-11 11:41N 52°24' E 004°46'0 0.0
2017-Dec-11 11:14N 52°24' E 004°46'0 0.0
2017-Dec-11 10:47N 52°24' E 004°46'0 0.0
2017-Dec-11 10:23N 52°24' E 004°46'0 0.0
2017-Dec-11 09:35N 52°24' E 004°46'0 0.0
2017-Dec-11 09:17N 52°24' E 004°46'0 0.0
2017-Dec-11 08:59N 52°24' E 004°46'0 0.0
2017-Dec-11 08:29N 52°24' E 004°46'0 0.0
2017-Dec-11 06:59N 52°24' E 004°46'0 0.0
2017-Dec-11 06:14N 52°24' E 004°46'0 0.0
2017-Dec-11 05:59N 52°24' E 004°46'0 0.0
2017-Dec-11 05:23N 52°24' E 004°46'0 0.0
2017-Dec-11 04:38N 52°24' E 004°46'0 0.0
2017-Dec-11 04:29N 52°24' E 004°46'0 0.0
2017-Dec-11 03:59N 52°24' E 004°46'0 0.0
2017-Dec-11 03:26N 52°24' E 004°46'0 0.0
2017-Dec-11 02:50N 52°24' E 004°46'0 0.0
2017-Dec-11 02:29N 52°24' E 004°46'0 0.8
2017-Dec-11 02:00N 52°24' E 004°47'6 6.1
2017-Dec-11 01:00N 52°28' E 004°38'1 2.3
2017-Dec-11 00:30N 52°28' E 004°36'1 1.7
2017-Dec-11 00:01N 52°28' E 004°35'1 2.8
2017-Dec-10 23:30N 52°28' E 004°33'4 8.8
2017-Dec-10 23:00N 52°28' E 004°26'1 2.7
2017-Dec-10 22:30N 52°28' E 004°24'2 4.0
2017-Dec-10 22:00N 52°28' E 004°20'3 7.0
2017-Dec-10 21:30N 52°29' E 004°15'5 9.5
2017-Dec-10 21:00N 52°29' E 004°07'5 9.7
2017-Dec-10 20:30N 52°26' E 003°60'1 1.6
2017-Dec-10 19:59N 52°25' E 004°00'0 0.1
2017-Dec-10 19:29N 52°25' E 003°60'0 0.1
2017-Dec-10 18:59N 52°25' E 003°60'0 0.1
2017-Dec-10 18:29N 52°25' E 003°60'0 0.0
2017-Dec-10 17:59N 52°25' E 003°60'0 0.2
2017-Dec-10 17:29N 52°26' E 003°60'0 0.1
2017-Dec-10 16:59N 52°25' E 003°60'0 0.0
2017-Dec-10 16:29N 52°25' E 003°60'0 0.1
2017-Dec-10 15:59N 52°26' E 003°60'0 0.0
2017-Dec-10 15:26N 52°26' E 003°60'0 0.0
2017-Dec-10 14:59N 52°26' E 003°60'0 0.0
2017-Dec-10 14:29N 52°26' E 003°60'0 0.0
2017-Dec-10 13:59N 52°26' E 003°60'0 0.0
2017-Dec-10 13:29N 52°26' E 003°60'0 0.0
2017-Dec-10 12:59N 52°26' E 003°60'0 0.0
2017-Dec-10 12:29N 52°26' E 003°60'0 0.1
2017-Dec-10 11:59N 52°26' E 003°60'0 0.1
2017-Dec-10 11:29N 52°26' E 003°60'0 0.1
2017-Dec-10 10:59N 52°26' E 004°00'0 0.1
2017-Dec-10 10:29N 52°26' E 004°00'0 0.0
2017-Dec-10 09:59N 52°26' E 004°00'0 0.0
2017-Dec-10 09:29N 52°26' E 004°00'0 0.0
2017-Dec-10 08:59N 52°26' E 004°00'0 0.0
2017-Dec-10 08:29N 52°26' E 004°00'0 0.0
2017-Dec-10 07:59N 52°26' E 004°00'0 0.0
2017-Dec-10 07:26N 52°26' E 004°00'0 0.0
2017-Dec-10 06:59N 52°26' E 004°00'0 0.1
2017-Dec-10 06:29N 52°26' E 004°00'0 0.0
2017-Dec-10 05:59N 52°26' E 004°00'0 0.0
2017-Dec-10 05:29N 52°26' E 004°00'0 0.2
2017-Dec-10 04:59N 52°26' E 004°00'0 0.1
2017-Dec-10 04:29N 52°26' E 004°00'0 0.1
2017-Dec-10 03:56N 52°26' E 004°00'0 0.0
2017-Dec-10 03:29N 52°26' E 004°00'0 0.1
2017-Dec-10 02:59N 52°25' E 004°00'0 0.0
2017-Dec-10 02:29N 52°25' E 004°00'0 0.0
2017-Dec-10 01:59N 52°25' E 004°00'0 0.1
2017-Dec-10 01:29N 52°25' E 004°00'0 0.0
2017-Dec-10 00:59N 52°25' E 004°00'0 0.0
2017-Dec-10 00:29N 52°25' E 004°00'0 0.0
2017-Dec-09 23:59N 52°25' E 004°00'0 0.0
2017-Dec-09 23:29N 52°25' E 004°00'0 0.0
2017-Dec-09 22:59N 52°25' E 004°00'0 0.1
2017-Dec-09 22:29N 52°26' E 004°00'0 0.0
2017-Dec-09 21:59N 52°26' E 004°00'0 0.0
2017-Dec-09 21:29N 52°26' E 004°00'0 0.0
2017-Dec-09 20:59N 52°26' E 004°00'0 0.0
2017-Dec-09 20:29N 52°26' E 004°00'0 0.0
2017-Dec-09 19:59N 52°26' E 004°00'0 0.0
2017-Dec-09 19:29N 52°26' E 004°00'0 0.1
2017-Dec-09 19:00N 52°26' E 004°00'0 0.0
2017-Dec-09 18:29N 52°26' E 004°00'0 0.0
2017-Dec-09 17:58N 52°26' E 004°00'0 0.1
2017-Dec-09 17:29N 52°25' E 004°00'0 0.0
2017-Dec-09 16:59N 52°25' E 004°00'0 0.1
2017-Dec-09 16:29N 52°25' E 004°00'0 0.1
2017-Dec-09 15:59N 52°25' E 004°00'0 0.1
2017-Dec-09 15:29N 52°25' E 004°00'0 0.1
2017-Dec-09 14:59N 52°25' E 004°00'0 0.0
2017-Dec-09 14:29N 52°25' E 004°00'0 0.1
2017-Dec-09 13:59N 52°25' E 004°00'0 0.0
2017-Dec-09 13:29N 52°25' E 004°00'0 0.0
2017-Dec-09 12:59N 52°25' E 004°00'0 0.0
2017-Dec-09 12:29N 52°25' E 004°00'0 0.1
2017-Dec-09 11:59N 52°25' E 004°00'0 0.1
2017-Dec-09 11:29N 52°25' E 004°00'0 0.1
2017-Dec-09 10:59N 52°25' E 004°00'0 0.0
2017-Dec-09 10:29N 52°25' E 004°00'0 0.0
2017-Dec-09 09:59N 52°25' E 004°00'0 0.1
2017-Dec-09 09:29N 52°25' E 004°00'0 0.0
2017-Dec-09 09:00N 52°25' E 004°00'0 0.0
2017-Dec-09 08:28N 52°25' E 004°00'0 0.0
2017-Dec-09 08:00N 52°25' E 004°00'0 0.0
2017-Dec-09 07:29N 52°25' E 004°00'0 0.0
2017-Dec-09 07:00N 52°25' E 004°00'0 0.0
2017-Dec-09 06:30N 52°25' E 004°00'0 0.0
2017-Dec-09 06:00N 52°25' E 004°00'0 0.0
2017-Dec-09 05:30N 52°25' E 004°00'0 0.1
2017-Dec-09 04:58N 52°25' E 004°00'0 0.1
2017-Dec-09 04:29N 52°25' E 004°00'0 0.1
2017-Dec-09 03:59N 52°25' E 004°00'0 0.1
2017-Dec-09 03:28N 52°25' E 004°00'0 0.0
2017-Dec-09 02:58N 52°25' E 004°00'0 0.0
2017-Dec-09 02:28N 52°25' E 004°00'0 0.1
2017-Dec-09 01:58N 52°25' E 004°00'0 0.0
2017-Dec-09 01:28N 52°25' E 004°00'0 0.0
2017-Dec-09 00:55N 52°25' E 004°00'0 0.1
2017-Dec-09 00:25N 52°25' E 004°00'0 0.0
2017-Dec-08 23:58N 52°25' E 004°00'0 0.0
2017-Dec-08 23:28N 52°25' E 004°00'0 0.0
2017-Dec-08 22:55N 52°25' E 004°00'0 0.0
2017-Dec-08 22:28N 52°25' E 004°00'0 0.1
2017-Dec-08 21:59N 52°25' E 004°00'0 0.0
2017-Dec-08 21:26N 52°25' E 004°00'0 0.2
2017-Dec-08 20:56N 52°25' E 004°00'0 0.1
2017-Dec-08 20:26N 52°25' E 004°00'0 0.1
2017-Dec-08 19:59N 52°25' E 004°00'0 0.1
2017-Dec-08 19:30N 52°25' E 004°00'0 0.1
2017-Dec-08 18:54N 52°25' E 004°00'0 0.0
2017-Dec-08 18:30N 52°25' E 004°00'0 0.1
2017-Dec-08 17:50N 52°26' E 004°00'0 0.0
2017-Dec-08 17:24N 52°25' E 004°00'0 0.0
2017-Dec-08 16:53N 52°26' E 004°00'0 0.1
2017-Dec-08 16:25N 52°25' E 004°00'0 0.1
2017-Dec-08 15:56N 52°26' E 004°00'0 0.0
2017-Dec-08 15:30N 52°26' E 004°00'0 0.0
2017-Dec-08 15:00N 52°26' E 004°00'0 0.0
2017-Dec-08 14:30N 52°26' E 004°00'0 0.0
2017-Dec-08 13:57N 52°26' E 004°00'0 0.1
2017-Dec-08 13:27N 52°26' E 004°00'0 0.0
2017-Dec-08 12:57N 52°26' E 003°60'0 0.1
2017-Dec-08 12:30N 52°26' E 004°00'0 0.0
2017-Dec-08 12:00N 52°26' E 004°00'0 0.0
2017-Dec-08 11:30N 52°26' E 004°00'0 0.0
2017-Dec-08 11:00N 52°26' E 004°00'0 0.1
2017-Dec-08 10:30N 52°26' E 004°00'0 0.1
2017-Dec-08 10:00N 52°26' E 004°00'0 0.0
2017-Dec-08 09:30N 52°26' E 004°00'0 0.2
2017-Dec-08 09:00N 52°26' E 004°00'0 0.1
2017-Dec-08 08:30N 52°26' E 004°00'0 0.1
2017-Dec-08 08:00N 52°26' E 004°00'0 0.0
2017-Dec-08 07:30N 52°26' E 004°00'0 0.1
2017-Dec-08 06:57N 52°26' E 004°00'0 0.0
2017-Dec-08 06:27N 52°26' E 004°00'0 0.0
2017-Dec-08 06:00N 52°26' E 004°00'0 0.1
2017-Dec-08 05:22N 52°26' E 004°00'0 0.0
2017-Dec-08 04:58N 52°26' E 004°00'0 0.0
2017-Dec-08 04:28N 52°26' E 004°00'0 0.1
2017-Dec-08 03:59N 52°26' E 004°00'0 0.1
2017-Dec-08 03:30N 52°26' E 004°00'0 0.1
2017-Dec-08 02:54N 52°26' E 004°00'0 0.0
2017-Dec-08 02:30N 52°26' E 004°00'0 0.0
2017-Dec-08 02:00N 52°26' E 004°00'0 0.0
2017-Dec-08 01:30N 52°26' E 004°00'0 0.0
2017-Dec-08 01:00N 52°26' E 004°00'0 0.0
2017-Dec-08 00:30N 52°26' E 004°00'0 0.0
2017-Dec-08 00:00N 52°26' E 004°00'0 0.0
2017-Dec-07 23:30N 52°26' E 004°00'0 0.0
2017-Dec-07 23:00N 52°26' E 004°00'0 0.0
2017-Dec-07 22:30N 52°26' E 004°00'0 0.0
2017-Dec-07 22:00N 52°26' E 004°00'0 0.0
2017-Dec-07 21:30N 52°26' E 004°00'0 0.0
2017-Dec-07 21:00N 52°26' E 004°00'0 0.2
2017-Dec-07 20:30N 52°26' E 004°00'0 0.0
2017-Dec-07 20:00N 52°26' E 004°00'0 0.0
2017-Dec-07 19:30N 52°26' E 004°00'0 0.1
2017-Dec-07 19:00N 52°26' E 004°00'0 0.0
2017-Dec-07 18:30N 52°26' E 004°00'0 0.0
2017-Dec-07 18:00N 52°26' E 004°00'0 0.0
2017-Dec-07 17:30N 52°26' E 004°00'0 0.1
2017-Dec-07 16:54N 52°26' E 004°00'0 0.1
2017-Dec-07 16:30N 52°26' E 004°00'0 0.0
2017-Dec-07 15:54N 52°26' E 004°00'0 0.1
2017-Dec-07 15:27N 52°26' E 004°00'0 0.2
2017-Dec-07 15:00N 52°26' E 004°00'0 0.1
2017-Dec-07 14:30N 52°26' E 004°00'0 0.1
2017-Dec-07 14:00N 52°26' E 003°60'0 0.1
2017-Dec-07 13:28N 52°26' E 003°60'0 0.1
2017-Dec-07 13:00N 52°26' E 003°60'0 0.0
2017-Dec-07 12:30N 52°26' E 004°00'0 0.0
2017-Dec-07 11:58N 52°26' E 004°00'0 0.0
2017-Dec-07 11:26N 52°26' E 004°00'0 0.2
2017-Dec-07 11:00N 52°26' E 003°60'0 0.2
2017-Dec-07 10:30N 52°26' E 004°00'0 0.1
2017-Dec-07 10:00N 52°26' E 003°60'0 0.0
2017-Dec-07 09:30N 52°26' E 003°60'0 0.1
2017-Dec-07 09:00N 52°26' E 003°60'0 0.1
2017-Dec-07 08:30N 52°26' E 003°60'0 0.1
2017-Dec-07 08:00N 52°26' E 003°60'0 0.1
2017-Dec-07 07:30N 52°26' E 003°60'0 0.0
2017-Dec-07 07:00N 52°26' E 003°60'0 0.0
2017-Dec-07 06:30N 52°26' E 003°60'0 0.1
2017-Dec-07 06:00N 52°26' E 003°60'0 0.1
2017-Dec-07 05:30N 52°26' E 003°60'0 0.1
2017-Dec-07 05:00N 52°26' E 003°60'0 0.1
2017-Dec-07 04:30N 52°26' E 003°60'0 0.1
2017-Dec-07 04:00N 52°26' E 003°60'0 0.6
2017-Dec-07 03:30N 52°26' E 003°60'2 3.8
2017-Dec-07 03:00N 52°27' E 003°58'510.5
2017-Dec-07 02:30N 52°23' E 003°52'612.1
2017-Dec-07 02:00N 52°17' E 003°52'611.9
2017-Dec-07 01:30N 52°11' E 003°54'611.5
2017-Dec-07 01:00N 52°06' E 003°54'4 7.2
2017-Dec-07 00:30N 52°02' E 003°55'510.4
2017-Dec-07 00:00N 51°59' E 004°03'510.0
2017-Dec-06 23:30N 51°57' E 004°10'1 2.2
2017-Dec-06 22:58N 51°56' E 004°11'0 0.0
2017-Dec-06 22:28N 51°56' E 004°11'0 0.0
2017-Dec-06 21:55N 51°56' E 004°11'0 0.0
2017-Dec-06 21:25N 51°56' E 004°11'0 0.0
2017-Dec-06 20:58N 51°56' E 004°11'  
2017-Dec-04 10:19N 51°54' E 004°22'0 0.0
2017-Dec-04 09:58N 51°54' E 004°22'0 0.0
2017-Dec-04 09:28N 51°54' E 004°22'0 0.0
2017-Dec-04 08:58N 51°54' E 004°22'0 0.0
2017-Dec-04 08:22N 51°54' E 004°22'0 0.0
2017-Dec-04 07:58N 51°54' E 004°22'0 0.0
2017-Dec-04 07:28N 51°54' E 004°22'0 0.0
2017-Dec-04 06:58N 51°54' E 004°22'0 0.0
2017-Dec-04 06:28N 51°54' E 004°22'0 0.0
2017-Dec-04 05:58N 51°54' E 004°22'0 0.0
2017-Dec-04 05:28N 51°54' E 004°22'0 0.0
2017-Dec-04 04:58N 51°54' E 004°22'0 0.0
2017-Dec-04 04:28N 51°54' E 004°22'0 0.0
2017-Dec-04 03:58N 51°54' E 004°22'0 0.0
2017-Dec-04 03:28N 51°54' E 004°22'0 0.0
2017-Dec-04 02:55N 51°54' E 004°22'0 0.0
2017-Dec-04 02:28N 51°54' E 004°22'0 0.0
2017-Dec-04 01:58N 51°54' E 004°22'0 0.0
2017-Dec-04 01:28N 51°54' E 004°22'0 0.0
2017-Dec-04 00:58N 51°54' E 004°22'0 0.0
2017-Dec-04 00:28N 51°54' E 004°22'0 0.0
2017-Dec-03 23:58N 51°54' E 004°22'0 0.0
2017-Dec-03 23:28N 51°54' E 004°22'0 0.0
2017-Dec-03 22:58N 51°54' E 004°22'0 0.0
2017-Dec-03 22:28N 51°54' E 004°22'0 0.0
2017-Dec-03 21:52N 51°54' E 004°22'0 0.0
2017-Dec-03 21:22N 51°54' E 004°22'0 0.0
2017-Dec-03 20:58N 51°54' E 004°22'0 0.0
2017-Dec-03 20:28N 51°54' E 004°22'0 0.0
2017-Dec-03 19:58N 51°54' E 004°22'0 0.0
2017-Dec-03 19:28N 51°54' E 004°22'0 0.0
2017-Dec-03 18:55N 51°54' E 004°22'0 0.0
2017-Dec-03 18:28N 51°54' E 004°22'0 0.0
2017-Dec-03 17:58N 51°54' E 004°22'0 0.0
2017-Dec-03 17:28N 51°54' E 004°22'0 0.0
2017-Dec-03 16:55N 51°54' E 004°22'0 0.0
2017-Dec-03 16:28N 51°54' E 004°22'0 0.0
2017-Dec-03 15:58N 51°54' E 004°22'0 0.0
2017-Dec-03 15:28N 51°54' E 004°22'0 0.0
2017-Dec-03 14:58N 51°54' E 004°22'0 0.0
2017-Dec-03 14:25N 51°54' E 004°22'0 0.0
2017-Dec-03 13:58N 51°54' E 004°22'0 0.0
2017-Dec-03 13:28N 51°54' E 004°22'0 0.0
2017-Dec-03 12:58N 51°54' E 004°22'0 0.0
2017-Dec-03 12:28N 51°54' E 004°22'0 0.0
2017-Dec-03 11:58N 51°54' E 004°22'0 0.0
2017-Dec-03 11:28N 51°54' E 004°22'0 0.0
2017-Dec-03 10:58N 51°54' E 004°22'0 0.0
2017-Dec-03 10:28N 51°54' E 004°22'0 0.0
2017-Dec-03 09:58N 51°54' E 004°22'0 0.0
2017-Dec-03 09:28N 51°54' E 004°22'0 0.0
2017-Dec-03 08:58N 51°54' E 004°22'0 0.0
2017-Dec-03 08:25N 51°54' E 004°22'0 0.0
2017-Dec-03 07:58N 51°54' E 004°22'0 0.0
2017-Dec-03 07:28N 51°54' E 004°22'0 0.0
2017-Dec-03 06:58N 51°54' E 004°22'0 0.0
2017-Dec-03 06:28N 51°54' E 004°22'0 0.0
2017-Dec-03 05:55N 51°54' E 004°22'0 0.0
2017-Dec-03 05:28N 51°54' E 004°22'0 0.0
2017-Dec-03 04:58N 51°54' E 004°22'0 0.0
2017-Dec-03 04:28N 51°54' E 004°22'0 0.0
2017-Dec-03 03:58N 51°54' E 004°22'0 0.0
2017-Dec-03 03:28N 51°54' E 004°22'0 0.0
2017-Dec-03 02:58N 51°54' E 004°22'0 0.4
2017-Dec-03 02:31N 51°54' E 004°21'2 4.6
2017-Dec-03 02:00N 51°54' E 004°18'5 9.9
2017-Dec-03 01:30N 51°57' E 004°11'611.4
2017-Dec-03 01:00N 51°59' E 004°03'612.4
2017-Dec-03 00:30N 52°00' E 003°53'4 7.8
2017-Dec-03 00:00N 51°59' E 003°47'4 8.4
2017-Dec-02 23:30N 51°58' E 003°40'712.2
2017-Dec-02 22:57N 51°56' E 003°30'613.8
2017-Dec-02 22:30N 51°54' E 003°20'4911.8
2017-Dec-02 18:21N 51°28' E 002°14'411.5
2017-Dec-02 18:01N 51°25' E 002°11'611.8
2017-Dec-02 17:30N 51°19' E 002°08'611.9
2017-Dec-02 17:00N 51°14' E 002°04'611.8
2017-Dec-02 16:31N 51°11' E 001°56'611.9
2017-Dec-02 16:01N 51°08' E 001°47'612.3
2017-Dec-02 15:31N 51°04' E 001°40'612.7
2017-Dec-02 15:01N 50°60' E 001°33'712.9
2017-Dec-02 14:30N 50°55' E 001°26'713.8
2017-Dec-02 14:01N 50°48' E 001°23'713.1
2017-Dec-02 13:27N 50°41' E 001°18'2513.0
2017-Dec-02 11:34N 50°28' E 000°46'112.8
2017-Dec-02 11:30N 50°28' E 000°44'1712.8
2017-Dec-02 10:10N 50°23' E 000°19'213.0
2017-Dec-02 10:00N 50°22' E 000°16'813.3
2017-Dec-02 09:26N 50°20' E 000°04'612.4
2017-Dec-02 08:58N 50°16' W 000°02'613.6
2017-Dec-02 08:30N 50°10' W 000°03'713.8
2017-Dec-02 08:00N 50°03' W 000°06'713.6
2017-Dec-02 07:30N 49°56' W 000°07'713.5
2017-Dec-02 07:00N 49°50' W 000°09'612.8
2017-Dec-02 06:30N 49°43' W 000°09'612.7
2017-Dec-02 06:00N 49°37' W 000°07'612.2
2017-Dec-02 05:30N 49°31' W 000°04'510.8
2017-Dec-02 05:00N 49°29' E 000°04'4 7.4
2017-Dec-02 04:30N 49°28' E 000°10'1 1.0
2017-Dec-02 03:58N 49°29' E 000°10'0 0.5
2017-Dec-02 03:30N 49°29' E 000°11'1 1.8
2017-Dec-02 02:58N 49°29' E 000°12'0 0.0
2017-Dec-02 02:28N 49°29' E 000°12'0 0.0
2017-Dec-02 01:55N 49°29' E 000°12'0 0.0
2017-Dec-02 01:28N 49°29' E 000°12'0 0.0
2017-Dec-02 00:58N 49°29' E 000°12'0 0.0
2017-Dec-02 00:28N 49°29' E 000°12'0 0.0
2017-Dec-01 23:58N 49°29' E 000°12'0 0.0
2017-Dec-01 23:28N 49°29' E 000°12'0 0.0
2017-Dec-01 22:55N 49°29' E 000°12'0 0.0
2017-Dec-01 22:28N 49°29' E 000°12'0 0.0
2017-Dec-01 21:58N 49°29' E 000°12'0 0.0
2017-Dec-01 21:25N 49°29' E 000°12'0 0.0
2017-Dec-01 20:58N 49°29' E 000°12'0 0.0
2017-Dec-01 20:28N 49°29' E 000°12'0 0.0
2017-Dec-01 19:58N 49°29' E 000°12'0 0.0
2017-Dec-01 19:28N 49°29' E 000°12'0 0.0
2017-Dec-01 18:58N 49°29' E 000°12'0 0.0
2017-Dec-01 18:28N 49°29' E 000°12'0 0.0
2017-Dec-01 17:58N 49°29' E 000°12'0 0.0
2017-Dec-01 17:28N 49°29' E 000°12'0 0.0
2017-Dec-01 16:58N 49°29' E 000°12'0 0.0
2017-Dec-01 16:28N 49°29' E 000°12'0 0.0
2017-Dec-01 15:58N 49°29' E 000°12'0 0.0
2017-Dec-01 15:28N 49°29' E 000°12'0 0.0
2017-Dec-01 14:58N 49°29' E 000°12'0 0.0
2017-Dec-01 14:28N 49°29' E 000°12'0 0.0
2017-Dec-01 13:58N 49°29' E 000°12'0 0.0
2017-Dec-01 13:28N 49°29' E 000°12'0 0.0
2017-Dec-01 12:58N 49°29' E 000°12'  

Dump ship's entire track history